createdAt,value
2018-06-15T00:01:04.000Z,22.64
2018-06-15T00:11:03.000Z,22.63
2018-06-15T00:21:03.000Z,22.6
2018-06-15T00:31:03.000Z,22.58
2018-06-15T00:41:03.000Z,22.57
2018-06-15T00:51:05.000Z,22.55
2018-06-15T01:01:03.000Z,22.53
2018-06-15T01:11:03.000Z,22.52
2018-06-15T01:21:03.000Z,22.51
2018-06-15T01:31:03.000Z,22.49
2018-06-15T01:41:03.000Z,22.47
2018-06-15T01:51:03.000Z,22.46
2018-06-15T02:01:03.000Z,22.44
2018-06-15T02:11:03.000Z,22.42
2018-06-15T02:21:03.000Z,22.4
2018-06-15T02:31:03.000Z,22.38
2018-06-15T02:41:03.000Z,22.36
2018-06-15T02:51:03.000Z,22.34
2018-06-15T03:01:03.000Z,22.33
2018-06-15T03:11:03.000Z,22.31
2018-06-15T03:21:04.000Z,22.29
2018-06-15T03:31:04.000Z,22.3
2018-06-15T03:41:04.000Z,22.3
2018-06-15T03:51:04.000Z,22.28
2018-06-15T04:01:04.000Z,22.24
2018-06-15T04:11:04.000Z,22.24
2018-06-15T04:21:04.000Z,22.23
2018-06-15T04:31:04.000Z,22.23
2018-06-15T04:41:04.000Z,22.23
2018-06-15T04:51:04.000Z,22.23
2018-06-15T05:01:04.000Z,22.24
2018-06-15T05:11:04.000Z,22.23
2018-06-15T05:21:04.000Z,22.27
2018-06-15T05:31:04.000Z,22.28
2018-06-15T05:41:04.000Z,22.26
2018-06-15T05:51:04.000Z,22.26
2018-06-15T06:01:04.000Z,22.25
2018-06-15T06:11:04.000Z,22.26
2018-06-15T06:21:04.000Z,22.29
2018-06-15T06:31:04.000Z,22.32
2018-06-15T06:41:04.000Z,22.47
2018-06-15T06:51:04.000Z,22.57
2018-06-15T07:01:04.000Z,22.63
2018-06-15T07:11:04.000Z,22.76
2018-06-15T07:21:04.000Z,22.77
2018-06-15T07:31:04.000Z,22.74
2018-06-15T07:41:04.000Z,22.7
2018-06-15T07:51:04.000Z,22.73
2018-06-15T08:01:04.000Z,22.78
2018-06-15T08:11:04.000Z,22.93
2018-06-15T08:21:04.000Z,23.14
2018-06-15T08:31:04.000Z,23.31
2018-06-15T08:41:04.000Z,23.41
2018-06-15T08:51:04.000Z,23.38
2018-06-15T09:01:04.000Z,23.36
2018-06-15T09:11:04.000Z,23.44
2018-06-15T09:21:04.000Z,23.71
2018-06-15T09:31:04.000Z,23.54
2018-06-15T09:41:04.000Z,23.69
2018-06-15T09:51:04.000Z,23.87
2018-06-15T10:01:04.000Z,23.76
2018-06-15T10:11:04.000Z,23.74
2018-06-15T10:21:04.000Z,23.76
2018-06-15T10:31:04.000Z,23.79
2018-06-15T10:41:04.000Z,24.02
2018-06-15T10:51:04.000Z,24.15
2018-06-15T11:01:04.000Z,24.32
2018-06-15T11:11:04.000Z,24.48
2018-06-15T11:21:04.000Z,24.35
2018-06-15T11:31:04.000Z,24.67
2018-06-15T11:41:05.000Z,24.74
2018-06-15T11:51:05.000Z,24.86
2018-06-15T12:01:05.000Z,24.92
2018-06-15T12:11:05.000Z,24.95
2018-06-15T12:21:05.000Z,24.77
2018-06-15T12:31:05.000Z,25.07
2018-06-15T12:41:05.000Z,24.75
2018-06-15T12:51:05.000Z,24.99
2018-06-15T13:01:05.000Z,24.77
2018-06-15T13:11:05.000Z,24.85
2018-06-15T13:21:05.000Z,24.84
2018-06-15T13:31:05.000Z,25.09
2018-06-15T13:41:05.000Z,25.14
2018-06-15T13:51:05.000Z,25.18
2018-06-15T14:01:05.000Z,25.15
2018-06-15T14:11:05.000Z,25.04
2018-06-15T14:21:05.000Z,25.13
2018-06-15T14:31:05.000Z,25.13
2018-06-15T14:41:05.000Z,25.07
2018-06-15T14:51:05.000Z,25.11
2018-06-15T15:01:05.000Z,25.1
2018-06-15T15:11:05.000Z,25.13
2018-06-15T15:21:05.000Z,25.17
2018-06-15T15:31:05.000Z,25.14
2018-06-15T15:41:05.000Z,25.13
2018-06-15T15:51:05.000Z,25.13
2018-06-15T16:01:05.000Z,25.18
2018-06-15T16:11:05.000Z,25.13
2018-06-15T16:21:05.000Z,25.12
2018-06-15T16:31:05.000Z,25.18
2018-06-15T16:41:05.000Z,25.16
2018-06-15T16:51:05.000Z,25.19
2018-06-15T17:01:05.000Z,25.2
2018-06-15T17:11:05.000Z,25.17
2018-06-15T17:21:05.000Z,25.16
2018-06-15T17:31:05.000Z,25.12
2018-06-15T17:41:05.000Z,25.08
2018-06-15T17:51:05.000Z,25.06
2018-06-15T18:01:05.000Z,25.05
2018-06-15T18:11:05.000Z,25.03
2018-06-15T18:21:05.000Z,24.99
2018-06-15T18:31:05.000Z,24.97
2018-06-15T18:41:05.000Z,24.93
2018-06-15T18:51:06.000Z,24.94
2018-06-15T19:01:05.000Z,24.91
2018-06-15T19:11:05.000Z,24.94
2018-06-15T19:21:05.000Z,24.95
2018-06-15T19:31:05.000Z,24.94
2018-06-15T19:41:06.000Z,24.95
2018-06-15T19:51:06.000Z,24.92
2018-06-15T20:01:06.000Z,24.93
2018-06-15T20:11:06.000Z,24.93
2018-06-15T20:21:06.000Z,24.94
2018-06-15T20:31:06.000Z,24.96
2018-06-15T20:41:06.000Z,24.94
2018-06-15T20:51:06.000Z,24.96
2018-06-15T21:01:06.000Z,24.96
2018-06-15T21:11:06.000Z,24.86
2018-06-15T21:21:06.000Z,24.79
2018-06-15T21:31:06.000Z,24.73
2018-06-15T21:41:06.000Z,24.71
2018-06-15T21:51:06.000Z,24.66
2018-06-15T22:01:06.000Z,24.62
2018-06-15T22:11:06.000Z,24.56
2018-06-15T22:21:06.000Z,24.52
2018-06-15T22:31:06.000Z,24.48
2018-06-15T22:41:06.000Z,24.46
2018-06-15T22:51:06.000Z,24.42
2018-06-15T23:01:06.000Z,24.36
2018-06-15T23:21:06.000Z,24.28
2018-06-15T23:31:06.000Z,24.22
2018-06-15T23:41:06.000Z,24.2
2018-06-15T23:51:06.000Z,24.17
